sensor_id;sensor_type;location;lat;lon;timestamp;P1;durP1;ratioP1;P2;durP2;ratioP2
16033;SDS011;8121;51.418;6.998;2024-03-02T00:03:25;1.03;;;0.90;;
16033;SDS011;8121;51.418;6.998;2024-03-02T00:08:28;1.17;;;1.07;;
16033;SDS011;8121;51.418;6.998;2024-03-02T00:13:30;1.10;;;0.90;;
16033;SDS011;8121;51.418;6.998;2024-03-02T00:18:34;0.90;;;0.70;;
16033;SDS011;8121;51.418;6.998;2024-03-02T00:23:38;1.10;;;1.00;;
16033;SDS011;8121;51.418;6.998;2024-03-02T00:28:39;1.23;;;1.13;;
16033;SDS011;8121;51.418;6.998;2024-03-02T00:33:42;0.90;;;0.80;;
16033;SDS011;8121;51.418;6.998;2024-03-02T00:38:46;1.10;;;1.00;;
16033;SDS011;8121;51.418;6.998;2024-03-02T00:43:52;1.33;;;1.00;;
16033;SDS011;8121;51.418;6.998;2024-03-02T00:48:58;2.03;;;1.40;;
16033;SDS011;8121;51.418;6.998;2024-03-02T00:54:02;1.33;;;0.80;;
16033;SDS011;8121;51.418;6.998;2024-03-02T00:59:05;2.50;;;1.00;;
16033;SDS011;8121;51.418;6.998;2024-03-02T01:04:06;1.07;;;0.97;;
16033;SDS011;8121;51.418;6.998;2024-03-02T01:09:09;2.23;;;1.30;;
16033;SDS011;8121;51.418;6.998;2024-03-02T01:14:12;0.83;;;0.83;;
16033;SDS011;8121;51.418;6.998;2024-03-02T01:19:13;1.00;;;0.90;;
16033;SDS011;8121;51.418;6.998;2024-03-02T01:24:16;2.57;;;0.90;;
16033;SDS011;8121;51.418;6.998;2024-03-02T01:29:18;2.10;;;0.90;;
16033;SDS011;8121;51.418;6.998;2024-03-02T01:34:19;1.20;;;1.10;;
16033;SDS011;8121;51.418;6.998;2024-03-02T01:39:22;1.93;;;0.80;;
16033;SDS011;8121;51.418;6.998;2024-03-02T01:44:24;0.90;;;0.80;;
16033;SDS011;8121;51.418;6.998;2024-03-02T01:49:25;4.77;;;1.23;;
16033;SDS011;8121;51.418;6.998;2024-03-02T01:54:28;2.40;;;0.80;;
16033;SDS011;8121;51.418;6.998;2024-03-02T01:59:30;0.80;;;0.80;;
16033;SDS011;8121;51.418;6.998;2024-03-02T02:04:31;0.93;;;0.60;;
16033;SDS011;8121;51.418;6.998;2024-03-02T02:09:34;0.73;;;0.73;;
16033;SDS011;8121;51.418;6.998;2024-03-02T02:14:35;1.17;;;0.70;;
16033;SDS011;8121;51.418;6.998;2024-03-02T02:19:37;2.50;;;0.70;;
16033;SDS011;8121;51.418;6.998;2024-03-02T02:24:41;2.03;;;0.60;;
16033;SDS011;8121;51.418;6.998;2024-03-02T02:29:42;1.40;;;1.30;;
16033;SDS011;8121;51.418;6.998;2024-03-02T02:34:44;0.93;;;0.93;;
16033;SDS011;8121;51.418;6.998;2024-03-02T02:39:47;0.90;;;0.73;;
16033;SDS011;8121;51.418;6.998;2024-03-02T02:44:48;0.90;;;0.90;;
16033;SDS011;8121;51.418;6.998;2024-03-02T02:49:50;1.47;;;0.70;;
16033;SDS011;8121;51.418;6.998;2024-03-02T02:54:53;0.83;;;0.80;;
16033;SDS011;8121;51.418;6.998;2024-03-02T02:59:54;2.17;;;0.70;;
16033;SDS011;8121;51.418;6.998;2024-03-02T03:04:56;2.33;;;0.90;;
16033;SDS011;8121;51.418;6.998;2024-03-02T03:09:58;0.80;;;0.80;;
16033;SDS011;8121;51.418;6.998;2024-03-02T03:15:00;1.27;;;0.93;;
16033;SDS011;8121;51.418;6.998;2024-03-02T03:20:03;2.00;;;1.07;;
16033;SDS011;8121;51.418;6.998;2024-03-02T03:25:07;4.20;;;0.93;;
16033;SDS011;8121;51.418;6.998;2024-03-02T03:30:09;1.97;;;0.70;;
16033;SDS011;8121;51.418;6.998;2024-03-02T03:35:11;1.03;;;0.60;;
16033;SDS011;8121;51.418;6.998;2024-03-02T03:40:16;0.83;;;0.60;;
16033;SDS011;8121;51.418;6.998;2024-03-02T03:45:18;0.80;;;0.80;;
16033;SDS011;8121;51.418;6.998;2024-03-02T03:50:19;3.70;;;0.70;;
16033;SDS011;8121;51.418;6.998;2024-03-02T03:55:22;1.63;;;1.00;;
16033;SDS011;8121;51.418;6.998;2024-03-02T04:00:24;1.03;;;0.83;;
16033;SDS011;8121;51.418;6.998;2024-03-02T04:05:25;1.53;;;1.00;;
16033;SDS011;8121;51.418;6.998;2024-03-02T04:10:28;4.40;;;1.00;;
16033;SDS011;8121;51.418;6.998;2024-03-02T04:15:30;1.00;;;0.80;;
16033;SDS011;8121;51.418;6.998;2024-03-02T04:20:31;0.97;;;0.97;;
16033;SDS011;8121;51.418;6.998;2024-03-02T04:25:34;2.00;;;0.90;;
16033;SDS011;8121;51.418;6.998;2024-03-02T04:30:36;1.10;;;0.87;;
16033;SDS011;8121;51.418;6.998;2024-03-02T04:35:37;1.00;;;0.90;;
16033;SDS011;8121;51.418;6.998;2024-03-02T04:40:40;1.23;;;1.00;;
16033;SDS011;8121;51.418;6.998;2024-03-02T04:45:42;0.80;;;0.70;;
16033;SDS011;8121;51.418;6.998;2024-03-02T04:50:43;1.73;;;0.70;;
16033;SDS011;8121;51.418;6.998;2024-03-02T04:55:46;1.40;;;0.93;;
16033;SDS011;8121;51.418;6.998;2024-03-02T05:01:19;0.80;;;0.70;;
16033;SDS011;8121;51.418;6.998;2024-03-02T05:06:20;1.00;;;0.77;;
16033;SDS011;8121;51.418;6.998;2024-03-02T05:11:24;0.73;;;0.73;;
16033;SDS011;8121;51.418;6.998;2024-03-02T05:16:43;1.67;;;0.80;;
16033;SDS011;8121;51.418;6.998;2024-03-02T05:21:44;2.63;;;1.10;;
16033;SDS011;8121;51.418;6.998;2024-03-02T05:26:47;0.70;;;0.70;;
16033;SDS011;8121;51.418;6.998;2024-03-02T05:31:49;1.07;;;1.00;;
16033;SDS011;8121;51.418;6.998;2024-03-02T05:36:50;2.40;;;0.90;;
16033;SDS011;8121;51.418;6.998;2024-03-02T05:41:53;2.50;;;0.70;;
16033;SDS011;8121;51.418;6.998;2024-03-02T05:46:55;0.80;;;0.80;;
16033;SDS011;8121;51.418;6.998;2024-03-02T05:51:57;0.90;;;0.90;;
16033;SDS011;8121;51.418;6.998;2024-03-02T05:57:00;1.60;;;1.10;;
16033;SDS011;8121;51.418;6.998;2024-03-02T06:02:16;0.70;;;0.60;;
16033;SDS011;8121;51.418;6.998;2024-03-02T06:07:18;2.10;;;0.90;;
16033;SDS011;8121;51.418;6.998;2024-03-02T06:12:21;1.63;;;0.93;;
16033;SDS011;8121;51.418;6.998;2024-03-02T06:17:23;0.87;;;0.87;;
16033;SDS011;8121;51.418;6.998;2024-03-02T06:22:24;2.30;;;1.33;;
16033;SDS011;8121;51.418;6.998;2024-03-02T06:27:27;2.70;;;0.90;;
16033;SDS011;8121;51.418;6.998;2024-03-02T06:32:29;0.83;;;0.83;;
16033;SDS011;8121;51.418;6.998;2024-03-02T06:37:31;1.10;;;1.00;;
16033;SDS011;8121;51.418;6.998;2024-03-02T06:42:34;0.97;;;0.77;;
16033;SDS011;8121;51.418;6.998;2024-03-02T06:47:35;1.30;;;0.90;;
16033;SDS011;8121;51.418;6.998;2024-03-02T06:52:37;1.07;;;0.87;;
16033;SDS011;8121;51.418;6.998;2024-03-02T06:57:40;1.07;;;0.77;;
16033;SDS011;8121;51.418;6.998;2024-03-02T07:02:42;1.30;;;1.03;;
16033;SDS011;8121;51.418;6.998;2024-03-02T07:07:44;1.10;;;1.00;;
16033;SDS011;8121;51.418;6.998;2024-03-02T07:12:47;1.20;;;1.10;;
16033;SDS011;8121;51.418;6.998;2024-03-02T07:17:49;0.90;;;0.90;;
16033;SDS011;8121;51.418;6.998;2024-03-02T07:22:50;4.03;;;1.30;;
16033;SDS011;8121;51.418;6.998;2024-03-02T07:27:53;3.60;;;1.53;;
16033;SDS011;8121;51.418;6.998;2024-03-02T07:32:55;1.23;;;1.13;;
16033;SDS011;8121;51.418;6.998;2024-03-02T07:37:56;1.20;;;1.10;;
16033;SDS011;8121;51.418;6.998;2024-03-02T07:42:59;1.63;;;1.53;;
16033;SDS011;8121;51.418;6.998;2024-03-02T07:48:01;2.90;;;1.30;;
16033;SDS011;8121;51.418;6.998;2024-03-02T07:53:04;2.33;;;1.23;;
16033;SDS011;8121;51.418;6.998;2024-03-02T07:58:07;1.67;;;1.13;;
16033;SDS011;8121;51.418;6.998;2024-03-02T08:03:09;1.27;;;1.17;;
16033;SDS011;8121;51.418;6.998;2024-03-02T08:08:11;1.23;;;1.13;;
16033;SDS011;8121;51.418;6.998;2024-03-02T08:13:14;1.80;;;1.37;;
16033;SDS011;8121;51.418;6.998;2024-03-02T08:18:16;1.30;;;1.20;;
16033;SDS011;8121;51.418;6.998;2024-03-02T08:23:18;1.40;;;1.30;;
16033;SDS011;8121;51.418;6.998;2024-03-02T08:28:21;1.57;;;1.27;;
16033;SDS011;8121;51.418;6.998;2024-03-02T08:33:22;2.40;;;1.40;;
16033;SDS011;8121;51.418;6.998;2024-03-02T08:38:24;4.17;;;2.20;;
16033;SDS011;8121;51.418;6.998;2024-03-02T08:43:27;1.20;;;1.10;;
16033;SDS011;8121;51.418;6.998;2024-03-02T08:48:29;1.13;;;1.03;;
16033;SDS011;8121;51.418;6.998;2024-03-02T08:53:30;3.37;;;1.30;;
16033;SDS011;8121;51.418;6.998;2024-03-02T08:58:34;1.60;;;1.50;;
16033;SDS011;8121;51.418;6.998;2024-03-02T09:03:35;9.90;;;1.20;;
16033;SDS011;8121;51.418;6.998;2024-03-02T09:08:37;1.20;;;1.10;;
16033;SDS011;8121;51.418;6.998;2024-03-02T09:13:40;3.10;;;1.40;;
16033;SDS011;8121;51.418;6.998;2024-03-02T09:18:42;1.43;;;1.00;;
16033;SDS011;8121;51.418;6.998;2024-03-02T09:23:44;1.20;;;1.13;;
16033;SDS011;8121;51.418;6.998;2024-03-02T09:28:48;1.30;;;1.20;;
16033;SDS011;8121;51.418;6.998;2024-03-02T09:33:50;2.03;;;0.90;;
16033;SDS011;8121;51.418;6.998;2024-03-02T09:38:51;3.33;;;1.10;;
16033;SDS011;8121;51.418;6.998;2024-03-02T09:43:55;0.97;;;0.90;;
16033;SDS011;8121;51.418;6.998;2024-03-02T09:48:57;3.83;;;1.27;;
16033;SDS011;8121;51.418;6.998;2024-03-02T09:54:00;0.77;;;0.77;;
16033;SDS011;8121;51.418;6.998;2024-03-02T09:59:03;1.30;;;1.20;;
16033;SDS011;8121;51.418;6.998;2024-03-02T10:04:05;4.40;;;1.60;;
16033;SDS011;8121;51.418;6.998;2024-03-02T10:09:07;0.90;;;0.70;;
16033;SDS011;8121;51.418;6.998;2024-03-02T10:14:10;1.47;;;0.90;;
16033;SDS011;8121;51.418;6.998;2024-03-02T10:19:17;2.60;;;0.97;;
16033;SDS011;8121;51.418;6.998;2024-03-02T10:24:20;0.77;;;0.77;;
16033;SDS011;8121;51.418;6.998;2024-03-02T10:29:24;0.90;;;0.70;;
16033;SDS011;8121;51.418;6.998;2024-03-02T10:34:28;3.43;;;1.00;;
16033;SDS011;8121;51.418;6.998;2024-03-02T10:39:30;0.63;;;0.63;;
16033;SDS011;8121;51.418;6.998;2024-03-02T10:44:34;1.30;;;0.90;;
16033;SDS011;8121;51.418;6.998;2024-03-02T10:49:36;1.20;;;0.80;;
16033;SDS011;8121;51.418;6.998;2024-03-02T10:54:39;0.90;;;0.80;;
16033;SDS011;8121;51.418;6.998;2024-03-02T10:59:44;1.47;;;0.90;;
16033;SDS011;8121;51.418;6.998;2024-03-02T11:04:53;1.00;;;0.90;;
16033;SDS011;8121;51.418;6.998;2024-03-02T11:09:57;0.70;;;0.60;;
16033;SDS011;8121;51.418;6.998;2024-03-02T11:15:02;1.57;;;0.80;;
16033;SDS011;8121;51.418;6.998;2024-03-02T11:20:07;2.50;;;0.77;;
16033;SDS011;8121;51.418;6.998;2024-03-02T11:25:22;2.80;;;0.90;;
16033;SDS011;8121;51.418;6.998;2024-03-02T11:35:56;1.10;;;0.80;;
16033;SDS011;8121;51.418;6.998;2024-03-02T11:40:59;5.30;;;0.80;;
16033;SDS011;8121;51.418;6.998;2024-03-02T11:46:05;3.80;;;0.90;;
16033;SDS011;8121;51.418;6.998;2024-03-02T11:51:08;1.57;;;0.60;;
16033;SDS011;8121;51.418;6.998;2024-03-02T11:56:11;1.00;;;0.90;;
16033;SDS011;8121;51.418;6.998;2024-03-02T12:01:14;0.70;;;0.50;;
16033;SDS011;8121;51.418;6.998;2024-03-02T12:06:16;3.60;;;0.87;;
16033;SDS011;8121;51.418;6.998;2024-03-02T12:11:19;1.43;;;0.70;;
16033;SDS011;8121;51.418;6.998;2024-03-02T12:16:28;1.00;;;0.70;;
16033;SDS011;8121;51.418;6.998;2024-03-02T12:21:29;1.10;;;0.87;;
16033;SDS011;8121;51.418;6.998;2024-03-02T12:26:31;2.57;;;0.87;;
16033;SDS011;8121;51.418;6.998;2024-03-02T12:31:34;1.53;;;0.83;;
16033;SDS011;8121;51.418;6.998;2024-03-02T12:36:37;0.60;;;0.50;;
16033;SDS011;8121;51.418;6.998;2024-03-02T12:41:39;2.07;;;0.77;;
16033;SDS011;8121;51.418;6.998;2024-03-02T12:46:43;1.20;;;1.00;;
16033;SDS011;8121;51.418;6.998;2024-03-02T12:51:44;0.70;;;0.70;;
16033;SDS011;8121;51.418;6.998;2024-03-02T12:56:51;0.80;;;0.80;;
16033;SDS011;8121;51.418;6.998;2024-03-02T13:01:55;0.80;;;0.70;;
16033;SDS011;8121;51.418;6.998;2024-03-02T13:06:58;0.60;;;0.50;;
16033;SDS011;8121;51.418;6.998;2024-03-02T13:12:00;0.60;;;0.60;;
16033;SDS011;8121;51.418;6.998;2024-03-02T13:17:04;2.43;;;0.70;;
16033;SDS011;8121;51.418;6.998;2024-03-02T13:22:06;0.70;;;0.57;;
16033;SDS011;8121;51.418;6.998;2024-03-02T13:27:08;0.63;;;0.50;;
16033;SDS011;8121;51.418;6.998;2024-03-02T13:32:11;0.70;;;0.50;;
16033;SDS011;8121;51.418;6.998;2024-03-02T13:37:16;2.90;;;0.80;;
16033;SDS011;8121;51.418;6.998;2024-03-02T13:42:17;1.00;;;0.50;;
16033;SDS011;8121;51.418;6.998;2024-03-02T13:47:20;0.80;;;0.70;;
16033;SDS011;8121;51.418;6.998;2024-03-02T13:52:22;0.90;;;0.60;;
16033;SDS011;8121;51.418;6.998;2024-03-02T13:57:25;0.70;;;0.60;;
16033;SDS011;8121;51.418;6.998;2024-03-02T14:02:29;0.93;;;0.63;;
16033;SDS011;8121;51.418;6.998;2024-03-02T14:07:31;0.70;;;0.63;;
16033;SDS011;8121;51.418;6.998;2024-03-02T14:12:32;0.60;;;0.50;;
16033;SDS011;8121;51.418;6.998;2024-03-02T14:17:36;1.47;;;0.60;;
16033;SDS011;8121;51.418;6.998;2024-03-02T14:22:37;0.60;;;0.60;;
16033;SDS011;8121;51.418;6.998;2024-03-02T14:27:39;0.80;;;0.77;;
16033;SDS011;8121;51.418;6.998;2024-03-02T14:32:42;0.67;;;0.50;;
16033;SDS011;8121;51.418;6.998;2024-03-02T14:37:44;0.80;;;0.70;;
16033;SDS011;8121;51.418;6.998;2024-03-02T14:42:45;0.80;;;0.70;;
16033;SDS011;8121;51.418;6.998;2024-03-02T14:47:49;0.60;;;0.50;;
16033;SDS011;8121;51.418;6.998;2024-03-02T14:52:51;0.90;;;0.50;;
16033;SDS011;8121;51.418;6.998;2024-03-02T14:57:53;0.70;;;0.50;;
16033;SDS011;8121;51.418;6.998;2024-03-02T15:02:56;1.57;;;0.87;;
16033;SDS011;8121;51.418;6.998;2024-03-02T15:07:58;1.27;;;0.70;;
16033;SDS011;8121;51.418;6.998;2024-03-02T15:13:02;0.70;;;0.70;;
16033;SDS011;8121;51.418;6.998;2024-03-02T15:18:05;0.70;;;0.60;;
16033;SDS011;8121;51.418;6.998;2024-03-02T15:23:08;1.17;;;0.60;;
16033;SDS011;8121;51.418;6.998;2024-03-02T15:28:10;0.87;;;0.87;;
16033;SDS011;8121;51.418;6.998;2024-03-02T15:33:14;1.10;;;0.80;;
16033;SDS011;8121;51.418;6.998;2024-03-02T15:38:17;1.53;;;0.90;;
16033;SDS011;8121;51.418;6.998;2024-03-02T15:43:19;0.83;;;0.67;;
16033;SDS011;8121;51.418;6.998;2024-03-02T15:48:27;0.70;;;0.70;;
16033;SDS011;8121;51.418;6.998;2024-03-02T15:53:29;0.70;;;0.70;;
16033;SDS011;8121;51.418;6.998;2024-03-02T15:58:34;4.30;;;1.03;;
16033;SDS011;8121;51.418;6.998;2024-03-02T16:03:37;2.33;;;0.90;;
16033;SDS011;8121;51.418;6.998;2024-03-02T16:08:39;1.87;;;1.10;;
16033;SDS011;8121;51.418;6.998;2024-03-02T16:13:55;1.70;;;1.60;;
16033;SDS011;8121;51.418;6.998;2024-03-02T16:19:00;2.33;;;0.73;;
16033;SDS011;8121;51.418;6.998;2024-03-02T16:24:03;2.50;;;0.70;;
16033;SDS011;8121;51.418;6.998;2024-03-02T16:29:05;1.10;;;1.10;;
16033;SDS011;8121;51.418;6.998;2024-03-02T16:34:08;7.40;;;2.30;;
16033;SDS011;8121;51.418;6.998;2024-03-02T16:39:10;1.43;;;0.73;;
16033;SDS011;8121;51.418;6.998;2024-03-02T16:44:17;0.70;;;0.70;;
16033;SDS011;8121;51.418;6.998;2024-03-02T16:49:21;1.10;;;1.00;;
16033;SDS011;8121;51.418;6.998;2024-03-02T16:54:28;0.90;;;0.80;;
16033;SDS011;8121;51.418;6.998;2024-03-02T16:59:30;0.70;;;0.70;;
16033;SDS011;8121;51.418;6.998;2024-03-02T17:04:33;10.33;;;1.20;;
16033;SDS011;8121;51.418;6.998;2024-03-02T17:09:34;0.90;;;0.90;;
16033;SDS011;8121;51.418;6.998;2024-03-02T17:14:36;1.83;;;0.90;;
16033;SDS011;8121;51.418;6.998;2024-03-02T17:19:39;1.17;;;1.07;;
16033;SDS011;8121;51.418;6.998;2024-03-02T17:24:41;1.47;;;0.70;;
16033;SDS011;8121;51.418;6.998;2024-03-02T17:29:42;0.90;;;0.70;;
16033;SDS011;8121;51.418;6.998;2024-03-02T17:34:45;1.90;;;1.10;;
16033;SDS011;8121;51.418;6.998;2024-03-02T17:39:47;1.90;;;1.00;;
16033;SDS011;8121;51.418;6.998;2024-03-02T17:44:48;0.90;;;0.80;;
16033;SDS011;8121;51.418;6.998;2024-03-02T17:49:52;0.90;;;0.73;;
16033;SDS011;8121;51.418;6.998;2024-03-02T17:54:56;1.20;;;1.10;;
16033;SDS011;8121;51.418;6.998;2024-03-02T17:59:58;2.80;;;1.03;;
16033;SDS011;8121;51.418;6.998;2024-03-02T18:05:02;0.70;;;0.60;;
16033;SDS011;8121;51.418;6.998;2024-03-02T18:10:05;2.00;;;0.90;;
16033;SDS011;8121;51.418;6.998;2024-03-02T18:15:08;0.97;;;0.87;;
16033;SDS011;8121;51.418;6.998;2024-03-02T18:20:11;1.20;;;0.70;;
16033;SDS011;8121;51.418;6.998;2024-03-02T18:25:13;1.07;;;0.93;;
16033;SDS011;8121;51.418;6.998;2024-03-02T18:30:15;1.63;;;0.80;;
16033;SDS011;8121;51.418;6.998;2024-03-02T18:35:19;1.03;;;0.93;;
16033;SDS011;8121;51.418;6.998;2024-03-02T18:40:21;2.57;;;0.90;;
16033;SDS011;8121;51.418;6.998;2024-03-02T18:45:22;1.00;;;0.90;;
16033;SDS011;8121;51.418;6.998;2024-03-02T18:50:26;0.80;;;0.80;;
16033;SDS011;8121;51.418;6.998;2024-03-02T18:55:27;1.13;;;1.00;;
16033;SDS011;8121;51.418;6.998;2024-03-02T19:00:29;0.97;;;0.97;;
16033;SDS011;8121;51.418;6.998;2024-03-02T19:05:34;1.23;;;0.93;;
16033;SDS011;8121;51.418;6.998;2024-03-02T19:10:35;1.10;;;1.00;;
16033;SDS011;8121;51.418;6.998;2024-03-02T19:15:39;1.13;;;1.07;;
16033;SDS011;8121;51.418;6.998;2024-03-02T19:20:42;0.80;;;0.80;;
16033;SDS011;8121;51.418;6.998;2024-03-02T19:25:45;1.50;;;1.40;;
16033;SDS011;8121;51.418;6.998;2024-03-02T19:30:48;3.37;;;1.30;;
16033;SDS011;8121;51.418;6.998;2024-03-02T19:35:59;4.20;;;1.20;;
16033;SDS011;8121;51.418;6.998;2024-03-02T19:41:09;1.40;;;1.30;;
16033;SDS011;8121;51.418;6.998;2024-03-02T19:46:10;1.57;;;1.43;;
16033;SDS011;8121;51.418;6.998;2024-03-02T19:51:16;1.20;;;1.10;;
16033;SDS011;8121;51.418;6.998;2024-03-02T19:56:18;3.07;;;1.30;;
16033;SDS011;8121;51.418;6.998;2024-03-02T20:01:20;2.10;;;1.90;;
16033;SDS011;8121;51.418;6.998;2024-03-02T20:06:24;1.47;;;1.37;;
16033;SDS011;8121;51.418;6.998;2024-03-02T20:11:30;1.43;;;1.33;;
16033;SDS011;8121;51.418;6.998;2024-03-02T20:16:33;2.47;;;1.60;;
16033;SDS011;8121;51.418;6.998;2024-03-02T20:21:37;2.60;;;2.10;;
16033;SDS011;8121;51.418;6.998;2024-03-02T20:26:39;2.67;;;1.40;;
16033;SDS011;8121;51.418;6.998;2024-03-02T20:31:41;2.40;;;2.10;;
16033;SDS011;8121;51.418;6.998;2024-03-02T20:36:47;2.87;;;1.60;;
16033;SDS011;8121;51.418;6.998;2024-03-02T20:41:49;2.60;;;1.40;;
16033;SDS011;8121;51.418;6.998;2024-03-02T20:46:54;4.80;;;2.70;;
16033;SDS011;8121;51.418;6.998;2024-03-02T20:51:59;1.10;;;1.00;;
16033;SDS011;8121;51.418;6.998;2024-03-02T20:57:01;6.23;;;2.37;;
16033;SDS011;8121;51.418;6.998;2024-03-02T21:02:05;1.60;;;1.33;;
16033;SDS011;8121;51.418;6.998;2024-03-02T21:07:09;1.50;;;1.40;;
16033;SDS011;8121;51.418;6.998;2024-03-02T21:12:11;2.13;;;1.73;;
16033;SDS011;8121;51.418;6.998;2024-03-02T21:17:13;3.07;;;2.43;;
16033;SDS011;8121;51.418;6.998;2024-03-02T21:22:17;2.43;;;2.23;;
16033;SDS011;8121;51.418;6.998;2024-03-02T21:27:21;2.80;;;1.80;;
16033;SDS011;8121;51.418;6.998;2024-03-02T21:32:25;2.83;;;2.50;;
16033;SDS011;8121;51.418;6.998;2024-03-02T21:37:28;1.60;;;1.50;;
16033;SDS011;8121;51.418;6.998;2024-03-02T21:42:30;3.23;;;2.80;;
16033;SDS011;8121;51.418;6.998;2024-03-02T21:47:32;8.03;;;3.00;;
16033;SDS011;8121;51.418;6.998;2024-03-02T21:52:36;2.13;;;1.90;;
16033;SDS011;8121;51.418;6.998;2024-03-02T21:57:37;2.03;;;1.90;;
16033;SDS011;8121;51.418;6.998;2024-03-02T22:02:41;2.50;;;2.30;;
16033;SDS011;8121;51.418;6.998;2024-03-02T22:07:45;1.90;;;1.80;;
16033;SDS011;8121;51.418;6.998;2024-03-02T22:12:47;2.83;;;1.93;;
16033;SDS011;8121;51.418;6.998;2024-03-02T22:17:48;3.53;;;3.23;;
16033;SDS011;8121;51.418;6.998;2024-03-02T22:22:52;2.10;;;2.00;;
16033;SDS011;8121;51.418;6.998;2024-03-02T22:27:54;3.07;;;2.83;;
16033;SDS011;8121;51.418;6.998;2024-03-02T22:32:56;3.23;;;2.60;;
16033;SDS011;8121;51.418;6.998;2024-03-02T22:37:59;2.73;;;2.30;;
16033;SDS011;8121;51.418;6.998;2024-03-02T22:43:01;3.00;;;2.00;;
16033;SDS011;8121;51.418;6.998;2024-03-02T22:48:03;2.53;;;2.33;;
16033;SDS011;8121;51.418;6.998;2024-03-02T22:53:08;2.17;;;1.90;;
16033;SDS011;8121;51.418;6.998;2024-03-02T22:58:11;4.40;;;2.10;;
16033;SDS011;8121;51.418;6.998;2024-03-02T23:03:14;3.30;;;2.97;;
16033;SDS011;8121;51.418;6.998;2024-03-02T23:08:40;2.20;;;2.00;;
16033;SDS011;8121;51.418;6.998;2024-03-02T23:13:43;3.53;;;2.73;;
16033;SDS011;8121;51.418;6.998;2024-03-02T23:18:59;1.83;;;1.73;;
16033;SDS011;8121;51.418;6.998;2024-03-02T23:24:21;1.57;;;1.47;;
16033;SDS011;8121;51.418;6.998;2024-03-02T23:29:23;2.57;;;2.37;;
16033;SDS011;8121;51.418;6.998;2024-03-02T23:34:24;2.87;;;1.97;;
16033;SDS011;8121;51.418;6.998;2024-03-02T23:39:29;2.20;;;2.00;;
16033;SDS011;8121;51.418;6.998;2024-03-02T23:44:44;2.67;;;2.20;;
16033;SDS011;8121;51.418;6.998;2024-03-02T23:49:46;8.30;;;1.50;;
16033;SDS011;8121;51.418;6.998;2024-03-02T23:54:49;3.33;;;2.63;;
16033;SDS011;8121;51.418;6.998;2024-03-02T23:59:50;2.40;;;2.20;;
